createdAt,value
2022-12-01T00:00:49.737Z,1021.93
2022-12-01T00:01:49.859Z,1021.92
2022-12-01T00:02:49.870Z,1021.92
2022-12-01T00:03:49.683Z,1021.90
2022-12-01T00:04:49.673Z,1021.90
2022-12-01T00:05:49.650Z,1021.91
2022-12-01T00:06:49.680Z,1021.92
2022-12-01T00:07:49.691Z,1021.94
2022-12-01T00:08:49.626Z,1021.93
2022-12-01T00:09:49.863Z,1021.95
2022-12-01T00:10:49.604Z,1021.96
2022-12-01T00:11:49.596Z,1021.95
2022-12-01T00:12:49.614Z,1021.95
2022-12-01T00:13:49.588Z,1021.94
2022-12-01T00:14:49.569Z,1021.93
2022-12-01T00:15:49.549Z,1021.93
2022-12-01T00:16:49.611Z,1021.93
2022-12-01T00:17:49.532Z,1021.92
2022-12-01T00:18:49.551Z,1021.92
2022-12-01T00:19:49.846Z,1021.91
2022-12-01T00:20:49.511Z,1021.91
2022-12-01T00:21:49.481Z,1021.91
2022-12-01T00:22:49.481Z,1021.91
2022-12-01T00:23:49.461Z,1021.91
2022-12-01T00:24:49.608Z,1021.92
2022-12-01T00:25:49.445Z,1021.91
2022-12-01T00:26:49.440Z,1021.91
2022-12-01T00:27:49.425Z,1021.91
2022-12-01T00:28:49.418Z,1021.90
2022-12-01T00:29:49.726Z,1021.90
2022-12-01T00:30:49.544Z,1021.89
2022-12-01T00:31:49.436Z,1021.88
2022-12-01T00:32:49.392Z,1021.89
2022-12-01T00:33:49.365Z,1021.89
2022-12-01T00:34:49.358Z,1021.92
2022-12-01T00:35:49.341Z,1021.93
2022-12-01T00:36:49.493Z,1021.95
2022-12-01T00:37:49.325Z,1021.96
2022-12-01T00:38:49.310Z,1021.97
2022-12-01T00:39:49.569Z,1021.95
2022-12-01T00:40:49.293Z,1021.94
2022-12-01T00:41:49.279Z,1021.94
2022-12-01T00:42:49.309Z,1021.92
2022-12-01T00:43:49.260Z,1021.92
2022-12-01T00:44:49.261Z,1021.91
2022-12-01T00:45:49.266Z,1021.89
2022-12-01T00:46:49.240Z,1021.88
2022-12-01T00:47:49.248Z,1021.88
2022-12-01T00:48:49.345Z,1021.88
2022-12-01T00:49:49.441Z,1021.88
2022-12-01T00:50:49.190Z,1021.89
2022-12-01T00:51:49.173Z,1021.90
2022-12-01T00:52:49.170Z,1021.90
2022-12-01T00:53:49.162Z,1021.90
2022-12-01T00:54:49.280Z,1021.90
2022-12-01T00:55:49.135Z,1021.89
2022-12-01T00:56:49.130Z,1021.89
2022-12-01T00:57:49.112Z,1021.90
2022-12-01T00:58:49.113Z,1021.91
2022-12-01T00:59:49.343Z,1021.91
2022-12-01T01:00:49.171Z,1021.89
2022-12-01T01:01:49.130Z,1021.90
2022-12-01T01:02:49.149Z,1021.92
2022-12-01T01:03:49.059Z,1021.91
2022-12-01T01:04:49.046Z,1021.90
2022-12-01T01:05:49.039Z,1021.90
2022-12-01T01:06:49.052Z,1021.90
2022-12-01T01:07:49.051Z,1021.89
2022-12-01T01:08:49.002Z,1021.89
2022-12-01T01:09:49.235Z,1021.89
2022-12-01T01:10:48.986Z,1021.89
2022-12-01T01:11:48.973Z,1021.88
2022-12-01T01:12:49.015Z,1021.89
2022-12-01T01:13:48.971Z,1021.88
2022-12-01T01:14:48.946Z,1021.89
2022-12-01T01:15:48.925Z,1021.88
2022-12-01T01:16:49.066Z,1021.87
2022-12-01T01:17:48.910Z,1021.85
2022-12-01T01:18:49.057Z,1021.83
2022-12-01T01:19:49.125Z,1021.83
2022-12-01T01:20:48.882Z,1021.84
2022-12-01T01:21:48.868Z,1021.84
2022-12-01T01:22:48.860Z,1021.84
2022-12-01T01:23:48.842Z,1021.84
2022-12-01T01:24:48.986Z,1021.85
2022-12-01T01:25:48.827Z,1021.86
2022-12-01T01:26:48.819Z,1021.88
2022-12-01T01:27:48.808Z,1021.87
2022-12-01T01:28:48.806Z,1021.87
2022-12-01T01:29:49.011Z,1021.89
2022-12-01T01:30:48.838Z,1021.90
2022-12-01T01:31:48.763Z,1021.92
2022-12-01T01:32:48.756Z,1021.93
2022-12-01T01:33:48.745Z,1021.94
2022-12-01T01:34:48.732Z,1021.96
2022-12-01T01:35:48.727Z,1021.95
2022-12-01T01:36:48.756Z,1021.96
2022-12-01T01:37:48.711Z,1021.97
2022-12-01T01:38:48.699Z,1021.97
2022-12-01T01:39:49.052Z,1021.98
2022-12-01T01:40:48.675Z,1021.97
2022-12-01T01:41:48.656Z,1021.98
2022-12-01T01:42:48.790Z,1021.98
2022-12-01T01:43:48.633Z,1021.99
2022-12-01T01:44:48.633Z,1021.99
2022-12-01T01:45:48.638Z,1022.00
2022-12-01T01:46:48.613Z,1021.99
2022-12-01T01:47:48.600Z,1022.00
2022-12-01T01:48:48.725Z,1021.99
2022-12-01T01:49:48.816Z,1022.00
2022-12-01T01:50:48.573Z,1021.99
2022-12-01T01:51:48.566Z,1021.99
2022-12-01T01:52:48.551Z,1021.97
2022-12-01T01:53:48.540Z,1021.97
2022-12-01T01:54:48.684Z,1021.97
2022-12-01T01:55:48.510Z,1021.97
2022-12-01T01:56:48.505Z,1021.98
2022-12-01T01:57:48.488Z,1021.99
2022-12-01T01:58:48.489Z,1022.00
2022-12-01T01:59:48.953Z,1022.00
2022-12-01T02:00:48.680Z,1022.01
2022-12-01T02:01:48.507Z,1022.01
2022-12-01T02:02:48.472Z,1022.00
2022-12-01T02:03:48.434Z,1022.00
2022-12-01T02:04:48.422Z,1022.00
2022-12-01T02:05:48.410Z,1022.01
2022-12-01T02:06:48.432Z,1022.01
2022-12-01T02:07:48.449Z,1022.02
2022-12-01T02:08:48.386Z,1022.01
2022-12-01T02:09:48.706Z,1022.00
2022-12-01T02:10:48.368Z,1021.99
2022-12-01T02:11:48.546Z,1021.98
2022-12-01T02:12:48.491Z,1021.97
2022-12-01T02:13:48.325Z,1021.96
2022-12-01T02:14:48.322Z,1021.95
2022-12-01T02:15:48.308Z,1021.94
2022-12-01T02:16:48.346Z,1021.93
2022-12-01T02:17:48.284Z,1021.91
2022-12-01T02:18:48.426Z,1021.91
2022-12-01T02:19:48.611Z,1021.90
2022-12-01T02:20:48.256Z,1021.89
2022-12-01T02:21:48.249Z,1021.87
2022-12-01T02:22:53.371Z,1021.87
2022-12-01T02:23:48.230Z,1021.88
2022-12-01T02:24:48.351Z,1021.89
2022-12-01T02:25:48.203Z,1021.90
2022-12-01T02:26:48.198Z,1021.91
2022-12-01T02:27:48.181Z,1021.93
2022-12-01T02:28:48.177Z,1021.93
2022-12-01T02:29:48.557Z,1021.93
2022-12-01T02:30:48.260Z,1021.92
2022-12-01T02:31:48.143Z,1021.92
2022-12-01T02:32:48.137Z,1021.91
2022-12-01T02:33:48.115Z,1021.91
2022-12-01T02:34:48.113Z,1021.91
2022-12-01T02:35:48.096Z,1021.93
2022-12-01T02:36:48.216Z,1021.93
2022-12-01T02:37:48.081Z,1021.93
2022-12-01T02:38:48.079Z,1021.93
2022-12-01T02:39:48.520Z,1021.92
2022-12-01T02:40:48.059Z,1021.90
2022-12-01T02:41:48.043Z,1021.89
2022-12-01T02:42:48.155Z,1021.87
2022-12-01T02:43:48.026Z,1021.88
2022-12-01T02:44:48.011Z,1021.86
2022-12-01T02:45:48.078Z,1021.87
2022-12-01T02:46:47.990Z,1021.86
2022-12-01T02:47:47.975Z,1021.86
2022-12-01T02:48:48.101Z,1021.85
2022-12-01T02:49:48.440Z,1021.85
2022-12-01T02:50:47.952Z,1021.84
2022-12-01T02:51:47.941Z,1021.84
2022-12-01T02:52:47.945Z,1021.82
2022-12-01T02:53:47.914Z,1021.81
2022-12-01T02:54:48.041Z,1021.81
2022-12-01T02:55:47.895Z,1021.80
2022-12-01T02:56:47.889Z,1021.79
2022-12-01T02:57:47.876Z,1021.79
2022-12-01T02:58:47.880Z,1021.80
2022-12-01T02:59:48.204Z,1021.80
2022-12-01T03:00:47.971Z,1021.80
2022-12-01T03:01:47.878Z,1021.81
2022-12-01T03:02:47.916Z,1021.82
2022-12-01T03:03:47.813Z,1021.84
2022-12-01T03:04:47.816Z,1021.86
2022-12-01T03:05:47.798Z,1021.85
2022-12-01T03:06:47.917Z,1021.87
2022-12-01T03:07:47.867Z,1021.87
2022-12-01T03:08:47.800Z,1021.87
2022-12-01T03:09:48.144Z,1021.88
2022-12-01T03:10:47.764Z,1021.89
2022-12-01T03:11:47.731Z,1021.90
2022-12-01T03:12:47.851Z,1021.90
2022-12-01T03:13:47.711Z,1021.90
2022-12-01T03:14:47.707Z,1021.90
2022-12-01T03:15:47.782Z,1021.90
2022-12-01T03:16:47.682Z,1021.91
2022-12-01T03:17:47.662Z,1021.91
2022-12-01T03:18:47.689Z,1021.93
2022-12-01T03:19:47.954Z,1021.93
2022-12-01T03:20:47.645Z,1021.95
2022-12-01T03:21:47.625Z,1021.95
2022-12-01T03:22:47.620Z,1021.97
2022-12-01T03:23:47.604Z,1021.97
2022-12-01T03:24:47.732Z,1021.99
2022-12-01T03:25:47.585Z,1021.98
2022-12-01T03:26:47.577Z,1022.00
2022-12-01T03:28:19.243Z,1022.00
2022-12-01T03:28:47.564Z,1021.99
2022-12-01T03:29:47.890Z,1021.97
2022-12-01T03:30:47.885Z,1021.97
2022-12-01T03:31:47.597Z,1021.96
2022-12-01T03:32:47.515Z,1021.97
2022-12-01T03:33:47.498Z,1021.96
2022-12-01T03:34:47.496Z,1021.95
2022-12-01T03:35:47.478Z,1021.96
2022-12-01T03:36:47.631Z,1021.94
2022-12-01T03:37:47.467Z,1021.94
2022-12-01T03:38:47.453Z,1021.94
2022-12-01T03:39:47.856Z,1021.93
2022-12-01T03:40:47.432Z,1021.92
2022-12-01T03:41:47.424Z,1021.93
2022-12-01T03:42:47.654Z,1021.92
2022-12-01T03:43:47.409Z,1021.94
2022-12-01T03:44:47.389Z,1021.94
2022-12-01T03:45:47.479Z,1021.93
2022-12-01T03:46:47.370Z,1021.94
2022-12-01T03:47:47.358Z,1021.92
2022-12-01T03:48:47.500Z,1021.92
2022-12-01T03:49:47.675Z,1021.91
2022-12-01T03:50:47.336Z,1021.91
2022-12-01T03:51:47.319Z,1021.90
2022-12-01T03:52:47.307Z,1021.91
2022-12-01T03:53:47.299Z,1021.91
2022-12-01T03:54:47.445Z,1021.92
2022-12-01T03:55:47.285Z,1021.92
2022-12-01T03:56:47.262Z,1021.92
2022-12-01T03:57:47.270Z,1021.91
2022-12-01T03:58:47.241Z,1021.90
2022-12-01T03:59:47.562Z,1021.90
2022-12-01T04:00:47.253Z,1021.88
2022-12-01T04:01:47.298Z,1021.88
2022-12-01T04:02:47.253Z,1021.89
2022-12-01T04:03:47.193Z,1021.88
2022-12-01T04:04:47.185Z,1021.88
2022-12-01T04:05:47.170Z,1021.88
2022-12-01T04:06:47.332Z,1021.89
2022-12-01T04:07:47.194Z,1021.88
2022-12-01T04:08:47.147Z,1021.89
2022-12-01T04:09:47.451Z,1021.88
2022-12-01T04:10:47.127Z,1021.89
2022-12-01T04:11:47.112Z,1021.88
2022-12-01T04:12:47.245Z,1021.88
2022-12-01T04:13:47.096Z,1021.87
2022-12-01T04:14:47.083Z,1021.86
2022-12-01T04:15:47.167Z,1021.86
2022-12-01T04:16:47.058Z,1021.86
2022-12-01T04:17:47.058Z,1021.85
2022-12-01T04:18:47.066Z,1021.87
2022-12-01T04:19:47.375Z,1021.87
2022-12-01T04:20:47.026Z,1021.87
2022-12-01T04:21:47.014Z,1021.88
2022-12-01T04:22:46.999Z,1021.89
2022-12-01T04:23:46.995Z,1021.89
2022-12-01T04:24:47.108Z,1021.91
2022-12-01T04:25:46.975Z,1021.92
2022-12-01T04:26:46.949Z,1021.94
2022-12-01T04:27:46.952Z,1021.94
2022-12-01T04:28:46.927Z,1021.97
2022-12-01T04:29:47.589Z,1021.98
2022-12-01T04:30:46.938Z,1021.98
2022-12-01T04:31:47.007Z,1021.99
2022-12-01T04:32:46.893Z,1021.99
2022-12-01T04:33:46.885Z,1022.00
2022-12-01T04:34:46.869Z,1022.01
2022-12-01T04:35:46.866Z,1022.01
2022-12-01T04:36:46.982Z,1022.02
2022-12-01T04:37:46.848Z,1022.02
2022-12-01T04:38:46.830Z,1022.03
2022-12-01T04:39:47.154Z,1022.03
2022-12-01T04:40:46.816Z,1022.03
2022-12-01T04:41:46.809Z,1022.03
2022-12-01T04:42:46.818Z,1022.05
2022-12-01T04:43:46.789Z,1022.05
2022-12-01T04:44:46.772Z,1022.06
2022-12-01T04:45:46.767Z,1022.07
2022-12-01T04:46:46.771Z,1022.08
2022-12-01T04:47:46.744Z,1022.09
2022-12-01T04:48:46.878Z,1022.10
2022-12-01T04:49:47.004Z,1022.11
2022-12-01T04:50:46.705Z,1022.13
2022-12-01T04:51:46.707Z,1022.14
2022-12-01T04:52:46.691Z,1022.14
2022-12-01T04:53:46.689Z,1022.14
2022-12-01T04:54:46.822Z,1022.14
2022-12-01T04:55:46.659Z,1022.13
2022-12-01T04:56:46.651Z,1022.13
2022-12-01T04:57:46.637Z,1022.13
2022-12-01T04:58:46.626Z,1022.13
2022-12-01T04:59:46.875Z,1022.13
2022-12-01T05:00:46.811Z,1022.14
2022-12-01T05:01:46.660Z,1022.13
2022-12-01T05:02:46.596Z,1022.14
2022-12-01T05:03:46.581Z,1022.13
2022-12-01T05:04:46.561Z,1022.11
2022-12-01T05:05:46.557Z,1022.09
2022-12-01T05:06:46.573Z,1022.08
2022-12-01T05:07:42.893Z,1022.07
2022-12-01T05:08:43.833Z,1022.06
2022-12-01T05:09:43.865Z,1022.06
2022-12-01T05:10:43.867Z,1022.05
2022-12-01T05:11:43.851Z,1022.04
2022-12-01T05:12:43.991Z,1022.03
2022-12-01T05:13:43.833Z,1022.02
2022-12-01T05:14:43.823Z,1022.02
2022-12-01T05:15:43.807Z,1022.02
2022-12-01T05:16:43.919Z,1022.02
2022-12-01T05:17:43.789Z,1022.03
2022-12-01T05:18:43.876Z,1022.05
2022-12-01T05:19:43.760Z,1022.06
2022-12-01T05:20:43.760Z,1022.08
2022-12-01T05:21:43.737Z,1022.09
2022-12-01T05:23:04.837Z,1022.08
2022-12-01T05:23:43.724Z,1022.08
2022-12-01T05:24:43.844Z,1022.08
2022-12-01T05:25:43.703Z,1022.09
2022-12-01T05:26:43.730Z,1022.09
2022-12-01T05:27:43.681Z,1022.09
2022-12-01T05:28:43.668Z,1022.09
2022-12-01T05:29:43.661Z,1022.10
2022-12-01T05:30:43.799Z,1022.10
2022-12-01T05:31:43.727Z,1022.10
2022-12-01T05:32:43.630Z,1022.11
2022-12-01T05:33:43.622Z,1022.10
2022-12-01T05:34:43.603Z,1022.11
2022-12-01T05:35:43.599Z,1022.11
2022-12-01T05:36:43.604Z,1022.11
2022-12-01T05:37:43.580Z,1022.11
2022-12-01T05:38:43.566Z,1022.11
2022-12-01T05:39:43.565Z,1022.12
2022-12-01T05:40:43.544Z,1022.12
2022-12-01T05:41:43.536Z,1022.13
2022-12-01T05:42:43.661Z,1022.12
2022-12-01T05:43:43.521Z,1022.13
2022-12-01T05:44:43.506Z,1022.14
2022-12-01T05:45:43.555Z,1022.15
2022-12-01T05:46:43.486Z,1022.17
2022-12-01T05:47:43.484Z,1022.17
2022-12-01T05:48:43.498Z,1022.19
2022-12-01T05:49:43.457Z,1022.19
2022-12-01T05:50:43.436Z,1022.21
2022-12-01T05:51:43.434Z,1022.21
2022-12-01T05:52:43.421Z,1022.22
2022-12-01T05:53:43.442Z,1022.21
2022-12-01T05:54:43.430Z,1022.22
2022-12-01T05:55:43.400Z,1022.22
2022-12-01T05:56:43.385Z,1022.23
2022-12-01T05:57:43.371Z,1022.24
2022-12-01T05:58:43.359Z,1022.24
2022-12-01T05:59:43.351Z,1022.26
2022-12-01T06:00:45.970Z,1022.27
2022-12-01T06:01:43.387Z,1022.27
2022-12-01T06:02:43.320Z,1022.28
2022-12-01T06:03:43.348Z,1022.29
2022-12-01T06:04:43.298Z,1022.29
2022-12-01T06:05:43.291Z,1022.28
2022-12-01T06:06:43.408Z,1022.29
2022-12-01T06:07:43.326Z,1022.28
2022-12-01T06:08:43.273Z,1022.29
2022-12-01T06:09:43.251Z,1022.30
2022-12-01T06:10:43.239Z,1022.32
2022-12-01T06:11:43.232Z,1022.33
2022-12-01T06:12:43.243Z,1022.34
2022-12-01T06:13:43.207Z,1022.35
2022-12-01T06:14:43.196Z,1022.35
2022-12-01T06:15:43.191Z,1022.36
2022-12-01T06:16:43.197Z,1022.37
2022-12-01T06:17:43.163Z,1022.38
2022-12-01T06:18:43.198Z,1022.38
2022-12-01T06:19:43.144Z,1022.39
2022-12-01T06:20:43.130Z,1022.40
2022-12-01T06:21:43.135Z,1022.40
2022-12-01T06:22:43.112Z,1022.41
2022-12-01T06:23:43.108Z,1022.42
2022-12-01T06:24:43.241Z,1022.42
2022-12-01T06:25:43.083Z,1022.42
2022-12-01T06:26:43.065Z,1022.40
2022-12-01T06:27:43.057Z,1022.40
2022-12-01T06:28:43.048Z,1022.39
2022-12-01T06:29:43.043Z,1022.40
2022-12-01T06:30:43.156Z,1022.40
2022-12-01T06:31:43.049Z,1022.41
2022-12-01T06:32:43.013Z,1022.42
2022-12-01T06:33:43.004Z,1022.45
2022-12-01T06:34:42.985Z,1022.46
2022-12-01T06:35:42.975Z,1022.46
2022-12-01T06:36:42.994Z,1022.47
2022-12-01T06:37:42.958Z,1022.48
2022-12-01T06:38:42.950Z,1022.49
2022-12-01T06:39:42.938Z,1022.49
2022-12-01T06:40:42.925Z,1022.50
2022-12-01T06:41:42.916Z,1022.50
2022-12-01T06:42:43.033Z,1022.50
2022-12-01T06:43:42.902Z,1022.51
2022-12-01T06:44:42.885Z,1022.53
2022-12-01T06:45:42.940Z,1022.55
2022-12-01T06:46:42.864Z,1022.56
2022-12-01T06:47:42.861Z,1022.57
2022-12-01T06:48:42.864Z,1022.58
2022-12-01T06:49:42.830Z,1022.59
2022-12-01T06:50:42.885Z,1022.60
2022-12-01T06:51:42.810Z,1022.61
2022-12-01T06:52:42.804Z,1022.61
2022-12-01T06:53:42.804Z,1022.62
2022-12-01T06:54:42.917Z,1022.62
2022-12-01T06:55:42.774Z,1022.64
2022-12-01T06:56:42.762Z,1022.65
2022-12-01T06:57:42.753Z,1022.65
2022-12-01T06:58:42.734Z,1022.66
2022-12-01T06:59:42.749Z,1022.65
2022-12-01T07:00:46.374Z,1022.65
2022-12-01T07:01:42.792Z,1022.65
2022-12-01T07:02:42.797Z,1022.66
2022-12-01T07:03:42.696Z,1022.66
2022-12-01T07:04:42.695Z,1022.66
2022-12-01T07:05:42.677Z,1022.66
2022-12-01T07:06:42.802Z,1022.66
2022-12-01T07:07:42.720Z,1022.66
2022-12-01T07:08:42.651Z,1022.67
2022-12-01T07:09:42.625Z,1022.67
2022-12-01T07:10:42.875Z,1022.68
2022-12-01T07:11:42.697Z,1022.68
2022-12-01T07:12:42.744Z,1022.69
2022-12-01T07:13:42.602Z,1022.69
2022-12-01T07:14:42.573Z,1022.69
2022-12-01T07:15:42.895Z,1022.70
2022-12-01T07:16:42.586Z,1022.69
2022-12-01T07:17:42.586Z,1022.69
2022-12-01T07:18:42.659Z,1022.68
2022-12-01T07:19:42.583Z,1022.67
2022-12-01T07:20:42.511Z,1022.66
2022-12-01T07:21:42.505Z,1022.66
2022-12-01T07:22:42.513Z,1022.65
2022-12-01T07:23:42.486Z,1022.65
2022-12-01T07:24:42.640Z,1022.64
2022-12-01T07:25:42.460Z,1022.64
2022-12-01T07:26:42.458Z,1022.65
2022-12-01T07:27:42.444Z,1022.64
2022-12-01T07:28:42.424Z,1022.65
2022-12-01T07:29:42.419Z,1022.65
2022-12-01T07:30:42.558Z,1022.65
2022-12-01T07:31:42.404Z,1022.65
2022-12-01T07:32:42.384Z,1022.64
2022-12-01T07:33:42.380Z,1022.63
2022-12-01T07:34:42.371Z,1022.63
2022-12-01T07:35:42.356Z,1022.61
2022-12-01T07:36:42.458Z,1022.60
2022-12-01T07:37:42.335Z,1022.61
2022-12-01T07:38:42.321Z,1022.62
2022-12-01T07:39:42.323Z,1022.62
2022-12-01T07:40:42.311Z,1022.63
2022-12-01T07:41:42.307Z,1022.63
2022-12-01T07:42:42.425Z,1022.65
2022-12-01T07:43:42.287Z,1022.64
2022-12-01T07:44:42.258Z,1022.64
2022-12-01T07:45:42.324Z,1022.63
2022-12-01T07:46:42.272Z,1022.64
2022-12-01T07:47:42.245Z,1022.64
2022-12-01T07:48:42.352Z,1022.66
2022-12-01T07:49:42.214Z,1022.69
2022-12-01T07:50:42.202Z,1022.70
2022-12-01T07:51:42.195Z,1022.71
2022-12-01T07:52:42.180Z,1022.73
2022-12-01T07:53:42.170Z,1022.74
2022-12-01T07:54:42.317Z,1022.74
2022-12-01T07:55:42.157Z,1022.74
2022-12-01T07:56:42.150Z,1022.74
2022-12-01T07:57:42.101Z,1022.74
2022-12-01T07:58:42.097Z,1022.73
2022-12-01T07:59:42.066Z,1022.74
2022-12-01T08:00:42.215Z,1022.74
2022-12-01T08:01:44.711Z,1022.75
2022-12-01T08:02:42.086Z,1022.77
2022-12-01T08:03:42.044Z,1022.78
2022-12-01T08:04:42.011Z,1022.80
2022-12-01T08:05:42.015Z,1022.81
2022-12-01T08:06:42.040Z,1022.82
2022-12-01T08:07:42.060Z,1022.83
2022-12-01T08:08:41.955Z,1022.84
2022-12-01T08:09:41.947Z,1022.84
2022-12-01T08:10:41.933Z,1022.84
2022-12-01T08:11:41.987Z,1022.84
2022-12-01T08:12:42.029Z,1022.83
2022-12-01T08:13:41.975Z,1022.83
2022-12-01T08:14:41.951Z,1022.83
2022-12-01T08:15:41.994Z,1022.83
2022-12-01T08:16:41.960Z,1022.82
2022-12-01T08:17:41.952Z,1022.83
2022-12-01T08:18:42.135Z,1022.83
2022-12-01T08:19:41.956Z,1022.84
2022-12-01T08:20:41.930Z,1022.83
2022-12-01T08:21:41.939Z,1022.85
2022-12-01T08:22:41.958Z,1022.85
2022-12-01T08:23:41.855Z,1022.86
2022-12-01T08:24:42.028Z,1022.85
2022-12-01T08:25:41.841Z,1022.84
2022-12-01T08:26:41.831Z,1022.83
2022-12-01T08:27:41.892Z,1022.83
2022-12-01T08:28:42.710Z,1022.82
2022-12-01T08:29:41.843Z,1022.83
2022-12-01T08:30:41.980Z,1022.83
2022-12-01T08:31:41.802Z,1022.84
2022-12-01T08:32:41.768Z,1022.84
2022-12-01T08:33:41.765Z,1022.83
2022-12-01T08:34:41.744Z,1022.83
2022-12-01T08:35:41.791Z,1022.82
2022-12-01T08:36:41.860Z,1022.81
2022-12-01T08:37:41.716Z,1022.81
2022-12-01T08:38:41.697Z,1022.80
2022-12-01T08:39:41.699Z,1022.80
2022-12-01T08:41:57.092Z,1022.77
2022-12-01T08:42:57.052Z,1022.73
2022-12-01T08:43:59.014Z,1022.71
2022-12-01T08:44:57.085Z,1022.73
2022-12-01T08:45:57.018Z,1022.77
2022-12-01T08:46:57.205Z,1022.79
2022-12-01T08:47:56.998Z,1022.80
2022-12-01T08:48:56.987Z,1022.81
2022-12-01T08:49:56.975Z,1022.82
2022-12-01T08:50:56.980Z,1022.83
2022-12-01T08:51:56.954Z,1022.84
2022-12-01T08:52:57.094Z,1022.86
2022-12-01T08:53:56.941Z,1022.87
2022-12-01T08:54:56.931Z,1022.87
2022-12-01T08:55:56.915Z,1022.89
2022-12-01T08:56:56.911Z,1022.89
2022-12-01T08:57:56.889Z,1022.89
2022-12-01T08:58:57.025Z,1022.89
2022-12-01T08:59:56.925Z,1022.91
2022-12-01T09:00:56.868Z,1022.93
2022-12-01T09:01:56.888Z,1022.95
2022-12-01T09:02:56.880Z,1022.96
2022-12-01T09:03:56.832Z,1022.97
2022-12-01T09:04:56.837Z,1022.98
2022-12-01T09:05:56.776Z,1022.98
2022-12-01T09:06:56.830Z,1022.99
2022-12-01T09:07:56.765Z,1022.98
2022-12-01T09:08:56.730Z,1022.99
2022-12-01T09:09:56.740Z,1023.00
2022-12-01T09:10:57.607Z,1023.01
2022-12-01T09:11:57.054Z,1023.01
2022-12-01T09:12:56.689Z,1023.01
2022-12-01T09:13:56.672Z,1023.01
2022-12-01T09:14:56.666Z,1023.02
2022-12-01T09:15:56.688Z,1023.02
2022-12-01T09:16:56.795Z,1023.03
2022-12-01T09:17:56.654Z,1023.02
2022-12-01T09:18:56.625Z,1023.03
2022-12-01T09:19:56.611Z,1023.02
2022-12-01T09:20:56.635Z,1023.03
2022-12-01T09:21:56.590Z,1023.04
2022-12-01T09:22:56.940Z,1023.05
2022-12-01T09:23:56.569Z,1023.05
2022-12-01T09:24:56.564Z,1023.06
2022-12-01T09:25:56.602Z,1023.06
2022-12-01T09:26:56.546Z,1023.07
2022-12-01T09:27:56.714Z,1023.07
2022-12-01T09:28:56.555Z,1023.08
2022-12-01T09:29:56.511Z,1023.09
2022-12-01T09:30:56.594Z,1023.09
2022-12-01T09:31:56.571Z,1023.09
2022-12-01T09:32:56.534Z,1023.08
2022-12-01T09:33:56.552Z,1023.08
2022-12-01T09:34:56.649Z,1023.08
2022-12-01T09:35:56.518Z,1023.07
2022-12-01T09:36:56.502Z,1023.08
2022-12-01T09:37:56.486Z,1023.08
2022-12-01T09:38:56.477Z,1023.08
2022-12-01T09:39:56.465Z,1023.08
2022-12-01T09:40:56.615Z,1023.08
2022-12-01T09:41:56.436Z,1023.07
2022-12-01T09:42:56.438Z,1023.06
2022-12-01T09:43:56.434Z,1023.05
2022-12-01T09:44:56.421Z,1023.04
2022-12-01T09:45:56.407Z,1023.04
2022-12-01T09:46:56.496Z,1023.03
2022-12-01T09:47:56.425Z,1023.02
2022-12-01T09:48:56.508Z,1023.02
2022-12-01T09:49:56.309Z,1023.01
2022-12-01T09:50:56.350Z,1022.99
2022-12-01T09:51:56.335Z,1022.99
2022-12-01T09:52:56.354Z,1022.98
2022-12-01T09:53:56.311Z,1022.97
2022-12-01T09:54:56.306Z,1022.97
2022-12-01T09:56:03.078Z,1022.99
2022-12-01T09:56:56.301Z,1022.99
2022-12-01T09:57:56.274Z,1023.00
2022-12-01T09:58:56.397Z,1023.01
2022-12-01T09:59:56.256Z,1023.01
2022-12-01T10:00:56.335Z,1023.00
2022-12-01T10:01:56.302Z,1022.99
2022-12-01T10:02:56.221Z,1022.98
2022-12-01T10:03:56.214Z,1022.96
2022-12-01T10:04:56.492Z,1022.94
2022-12-01T10:06:25.921Z,1022.91
2022-12-01T10:06:56.197Z,1022.91
2022-12-01T10:07:56.787Z,1022.89
2022-12-01T10:08:56.163Z,1022.89
2022-12-01T10:09:56.149Z,1022.88
2022-12-01T10:11:03.143Z,1022.88
2022-12-01T10:11:56.133Z,1022.88
2022-12-01T10:12:56.125Z,1022.88
2022-12-01T10:13:56.106Z,1022.88
2022-12-01T10:14:56.107Z,1022.89
2022-12-01T10:15:56.158Z,1022.89
2022-12-01T10:16:56.104Z,1022.89
2022-12-01T10:17:56.068Z,1022.90
2022-12-01T10:18:56.063Z,1022.90
2022-12-01T10:19:56.059Z,1022.89
2022-12-01T10:20:56.063Z,1022.88
2022-12-01T10:21:56.039Z,1022.87
2022-12-01T10:22:56.148Z,1022.86
2022-12-01T10:23:56.016Z,1022.85
2022-12-01T10:24:56.204Z,1022.83
2022-12-01T10:25:55.997Z,1022.81
2022-12-01T10:26:55.981Z,1022.80
2022-12-01T10:27:55.971Z,1022.79
2022-12-01T10:28:56.088Z,1022.78
2022-12-01T10:29:56.020Z,1022.77
2022-12-01T10:30:55.944Z,1022.77
2022-12-01T10:31:56.032Z,1022.77
2022-12-01T10:32:55.922Z,1022.78
2022-12-01T10:33:55.910Z,1022.78
2022-12-01T10:34:55.890Z,1022.79
2022-12-01T10:35:55.882Z,1022.80
2022-12-01T10:36:55.886Z,1022.80
2022-12-01T10:37:55.920Z,1022.80
2022-12-01T10:38:55.861Z,1022.80
2022-12-01T10:39:55.842Z,1022.79
2022-12-01T10:40:55.941Z,1022.77
2022-12-01T10:41:55.831Z,1022.76
2022-12-01T10:42:55.818Z,1022.75
2022-12-01T10:43:55.808Z,1022.73
2022-12-01T10:44:55.794Z,1022.73
2022-12-01T10:45:55.799Z,1022.72
2022-12-01T10:46:55.934Z,1022.72
2022-12-01T10:47:57.717Z,1022.73
2022-12-01T10:48:55.758Z,1022.73
2022-12-01T10:49:55.738Z,1022.72
2022-12-01T10:50:55.738Z,1022.72
2022-12-01T10:51:55.715Z,1022.73
2022-12-01T10:52:55.869Z,1022.72
2022-12-01T10:53:55.696Z,1022.71
2022-12-01T10:54:55.688Z,1022.71
2022-12-01T10:55:55.701Z,1022.70
2022-12-01T10:56:55.672Z,1022.69
2022-12-01T10:57:55.656Z,1022.67
2022-12-01T10:58:55.813Z,1022.67
2022-12-01T10:59:55.659Z,1022.68
2022-12-01T11:01:00.411Z,1022.69
2022-12-01T11:01:55.794Z,1022.69
2022-12-01T11:02:55.782Z,1022.69
2022-12-01T11:03:55.579Z,1022.69
2022-12-01T11:04:55.590Z,1022.69
2022-12-01T11:05:55.552Z,1022.68
2022-12-01T11:06:55.517Z,1022.68
2022-12-01T11:07:55.529Z,1022.67
2022-12-01T11:08:55.494Z,1022.68
2022-12-01T11:09:55.488Z,1022.67
2022-12-01T11:10:55.598Z,1022.66
2022-12-01T11:11:55.468Z,1022.65
2022-12-01T11:12:55.463Z,1022.65
2022-12-01T11:13:55.609Z,1022.65
2022-12-01T11:14:55.427Z,1022.65
2022-12-01T11:15:55.476Z,1022.64
2022-12-01T11:16:55.549Z,1022.64
2022-12-01T11:17:55.454Z,1022.64
2022-12-01T11:18:55.485Z,1022.64
2022-12-01T11:19:55.503Z,1022.64
2022-12-01T11:20:55.425Z,1022.64
2022-12-01T11:21:55.416Z,1022.64
2022-12-01T11:22:55.543Z,1022.65
2022-12-01T11:23:55.402Z,1022.66
2022-12-01T11:24:55.383Z,1022.66
2022-12-01T11:25:55.374Z,1022.67
2022-12-01T11:26:55.377Z,1022.67
2022-12-01T11:27:55.358Z,1022.67
2022-12-01T11:28:55.323Z,1022.66
2022-12-01T11:29:55.276Z,1022.67
2022-12-01T11:30:56.699Z,1022.66
2022-12-01T11:31:55.283Z,1022.66
2022-12-01T11:32:55.248Z,1022.65
2022-12-01T11:33:55.241Z,1022.64
2022-12-01T11:34:55.395Z,1022.65
2022-12-01T11:35:55.216Z,1022.66
2022-12-01T11:36:55.209Z,1022.66
2022-12-01T11:38:27.721Z,1022.65
2022-12-01T11:38:55.187Z,1022.65
2022-12-01T11:39:55.173Z,1022.64
2022-12-01T11:40:55.308Z,1022.64
2022-12-01T11:41:55.164Z,1022.64
2022-12-01T11:42:55.148Z,1022.65
2022-12-01T11:44:01.578Z,1022.66
2022-12-01T11:44:55.181Z,1022.67
2022-12-01T11:45:55.223Z,1022.68
2022-12-01T11:47:21.540Z,1022.69
2022-12-01T11:47:55.154Z,1022.70
2022-12-01T11:48:55.142Z,1022.69
2022-12-01T11:49:55.125Z,1022.69
2022-12-01T11:50:55.116Z,1022.70
2022-12-01T11:51:55.110Z,1022.68
2022-12-01T11:52:55.252Z,1022.68
2022-12-01T11:53:55.086Z,1022.67
2022-12-01T11:54:55.168Z,1022.67
2022-12-01T11:55:55.088Z,1022.65
2022-12-01T11:57:25.431Z,1022.64
2022-12-01T11:57:55.064Z,1022.64
2022-12-01T11:58:55.243Z,1022.63
2022-12-01T11:59:55.018Z,1022.63
2022-12-01T12:00:54.970Z,1022.62
2022-12-01T12:01:54.969Z,1022.61
2022-12-01T12:02:54.936Z,1022.61
2022-12-01T12:03:54.972Z,1022.61
2022-12-01T12:04:55.064Z,1022.60
2022-12-01T12:06:05.965Z,1022.59
2022-12-01T12:06:54.900Z,1022.59